Time;durP1;ratioP1;P1;durP2;ratioP2;P2;SDS_P1;SDS_P2;PMS_P1;PMS_P2;Temp;Humidity;BMP_temperature;BMP_pressure;BME280_temperature;BME280_humidity;BME280_pressure;Samples;Min_cycle;Max_cycle;Signal;HPM_P1;HPM_P2
2023/03/09 00:01:34;;;;;;;2.53;2.40;;;11.60;99.90;;;;;;910295;153;27421;-73
2023/03/09 00:04:00;;;;;;;2.73;2.53;;;11.60;99.90;;;;;;924639;151;27474;-73
2023/03/09 00:06:27;;;;;;;2.77;2.57;;;11.60;99.90;;;;;;909901;153;27378;-73
2023/03/09 00:08:53;;;;;;;3.20;2.90;;;11.60;99.90;;;;;;911900;153;27501;-73
2023/03/09 00:11:20;;;;;;;3.00;2.80;;;11.60;99.90;;;;;;912065;153;27504;-73
2023/03/09 00:13:47;;;;;;;3.00;2.80;;;11.60;99.90;;;;;;909720;153;27440;-73
2023/03/09 00:16:19;;;;;;;2.60;2.40;;;11.70;99.90;;;;;;925987;150;27456;-73
2023/03/09 00:18:45;;;;;;;2.83;2.63;;;11.70;99.90;;;;;;928415;151;27397;-73
2023/03/09 00:21:14;;;;;;;2.60;2.40;;;11.70;99.90;;;;;;910039;153;27505;-74
2023/03/09 00:23:38;;;;;;;2.97;2.77;;;11.70;99.90;;;;;;911158;153;27479;-73
2023/03/09 00:26:05;;;;;;;2.70;2.50;;;11.80;99.90;;;;;;926917;150;27446;-74
2023/03/09 00:28:32;;;;;;;2.57;2.47;;;11.80;99.90;;;;;;926898;151;27350;-73
2023/03/09 00:31:01;;;;;;;3.00;2.80;;;11.80;99.90;;;;;;925604;150;27505;-73
2023/03/09 00:33:28;;;;;;;2.70;2.50;;;11.80;99.90;;;;;;927489;150;27487;-74
2023/03/09 00:35:54;;;;;;;3.03;2.33;;;11.90;99.90;;;;;;927528;151;27332;-73
2023/03/09 00:38:21;;;;;;;2.70;2.50;;;11.90;99.90;;;;;;926423;150;27465;-73
2023/03/09 00:40:48;;;;;;;3.23;3.00;;;11.90;99.90;;;;;;925601;151;27367;-73
2023/03/09 00:43:14;;;;;;;2.20;2.10;;;12.00;99.90;;;;;;928561;150;27446;-74
2023/03/09 00:45:41;;;;;;;2.63;2.10;;;12.00;99.90;;;;;;916397;153;27477;-73
2023/03/09 00:48:07;;;;;;;2.50;2.30;;;12.00;99.90;;;;;;909583;153;27391;-74
2023/03/09 00:50:34;;;;;;;2.40;2.20;;;12.00;99.90;;;;;;922856;151;27436;-74
2023/03/09 00:53:00;;;;;;;2.40;2.20;;;12.10;99.90;;;;;;925594;150;27487;-74
2023/03/09 00:55:27;;;;;;;1.70;1.60;;;12.10;99.90;;;;;;923080;151;27411;-74
2023/03/09 00:57:54;;;;;;;1.93;1.83;;;12.10;99.90;;;;;;906794;153;27429;-74
2023/03/09 01:00:20;;;;;;;4.77;1.70;;;12.10;99.90;;;;;;925090;151;27445;-74
2023/03/09 01:02:47;;;;;;;2.10;1.90;;;12.10;99.90;;;;;;928001;150;27387;-73
2023/03/09 01:05:13;;;;;;;1.53;1.43;;;12.20;99.90;;;;;;922113;151;27498;-74
2023/03/09 01:07:41;;;;;;;1.37;1.30;;;12.20;99.90;;;;;;908223;154;27402;-73
2023/03/09 01:10:07;;;;;;;1.20;1.17;;;12.20;99.90;;;;;;924630;151;27353;-74
2023/03/09 01:12:33;;;;;;;1.50;1.40;;;12.30;99.90;;;;;;927318;150;27364;-74
2023/03/09 01:15:00;;;;;;;1.03;0.93;;;12.30;99.90;;;;;;916620;153;27454;-74
2023/03/09 01:17:26;;;;;;;0.80;0.80;;;12.30;99.90;;;;;;907380;153;27412;-73
2023/03/09 01:19:53;;;;;;;1.07;0.80;;;12.30;99.90;;;;;;915802;153;27372;-73
2023/03/09 01:22:20;;;;;;;0.77;0.70;;;12.30;99.90;;;;;;909844;152;27353;-74
2023/03/09 01:24:46;;;;;;;0.70;0.70;;;12.30;99.90;;;;;;922186;150;27391;-73
2023/03/09 01:27:13;;;;;;;0.80;0.80;;;12.40;99.90;;;;;;908668;152;27531;-73
2023/03/09 01:29:39;;;;;;;0.70;0.70;;;12.40;99.90;;;;;;924322;151;27853;-74
2023/03/09 01:32:06;;;;;;;0.60;0.60;;;12.30;99.90;;;;;;924123;150;27328;-74
2023/03/09 01:34:33;;;;;;;0.63;0.63;;;12.30;99.90;;;;;;928063;150;27808;-73
2023/03/09 01:36:59;;;;;;;0.60;0.60;;;12.30;99.90;;;;;;910352;153;27414;-73
2023/03/09 01:39:26;;;;;;;1.07;0.80;;;12.30;99.90;;;;;;914209;152;27406;-74
2023/03/09 01:41:52;;;;;;;0.53;0.53;;;12.30;99.90;;;;;;925708;151;27315;-73
2023/03/09 01:44:19;;;;;;;2.00;0.70;;;12.30;99.90;;;;;;905371;154;27417;-74
2023/03/09 01:46:45;;;;;;;0.80;0.60;;;12.30;99.90;;;;;;911342;154;27480;-73
2023/03/09 01:49:27;;;;;;;0.60;0.60;;;12.30;99.90;;;;;;902923;153;27403;-73
2023/03/09 01:52:03;;;;;;;1.03;0.60;;;12.30;99.90;;;;;;905652;155;27469;-74
2023/03/09 01:54:41;;;;;;;0.70;0.70;;;12.30;99.90;;;;;;903224;155;28036;-73
2023/03/09 01:57:11;;;;;;;0.53;0.53;;;12.30;99.90;;;;;;918137;152;27420;-74
2023/03/09 01:59:37;;;;;;;1.10;0.67;;;12.20;99.90;;;;;;902934;153;27534;-73
2023/03/09 02:02:04;;;;;;;0.70;0.40;;;12.20;99.90;;;;;;902065;155;27505;-73
2023/03/09 02:04:31;;;;;;;0.93;0.40;;;12.20;99.90;;;;;;903058;154;27383;-73
2023/03/09 02:06:57;;;;;;;0.50;0.50;;;12.20;99.90;;;;;;901145;153;27471;-73
2023/03/09 02:09:27;;;;;;;1.70;0.60;;;12.20;99.90;;;;;;904080;154;27542;-73
2023/03/09 02:11:54;;;;;;;0.80;0.80;;;12.20;99.90;;;;;;917748;152;27402;-73
2023/03/09 02:14:20;;;;;;;0.67;0.67;;;12.20;99.90;;;;;;905893;154;27354;-73
2023/03/09 02:16:47;;;;;;;0.50;0.50;;;12.20;99.90;;;;;;903274;153;27480;-73
2023/03/09 02:19:16;;;;;;;0.70;0.50;;;12.20;99.90;;;;;;920845;152;27348;-73
2023/03/09 02:21:49;;;;;;;1.23;0.50;;;12.20;99.90;;;;;;904477;153;27495;-73
2023/03/09 02:24:18;;;;;;;1.37;1.07;;;12.20;99.90;;;;;;904425;154;27389;-74
2023/03/09 02:26:54;;;;;;;0.93;0.60;;;12.10;99.90;;;;;;917578;150;27310;-74
2023/03/09 02:29:20;;;;;;;1.57;0.60;;;12.10;99.90;;;;;;922018;151;27347;-74
2023/03/09 02:31:47;;;;;;;0.70;0.70;;;12.10;99.90;;;;;;922952;151;27422;-73
2023/03/09 02:34:13;;;;;;;1.50;0.40;;;12.10;99.90;;;;;;923664;151;27351;-74
2023/03/09 02:36:40;;;;;;;1.03;0.60;;;12.10;99.90;;;;;;925100;151;27437;-74
2023/03/09 02:39:21;;;;;;;0.47;0.47;;;12.10;99.90;;;;;;923901;151;27459;-74
2023/03/09 02:41:48;;;;;;;1.80;0.60;;;12.10;99.90;;;;;;921300;151;27528;-74
2023/03/09 02:44:15;;;;;;;1.00;0.90;;;12.10;99.90;;;;;;925174;151;27451;-74
2023/03/09 02:46:41;;;;;;;0.50;0.50;;;12.10;99.90;;;;;;926263;151;27421;-73
2023/03/09 02:49:08;;;;;;;0.50;0.50;;;12.10;99.90;;;;;;927722;151;27809;-74
2023/03/09 02:51:34;;;;;;;0.70;0.57;;;12.10;99.90;;;;;;925929;151;27409;-74
2023/03/09 02:54:01;;;;;;;0.40;0.40;;;12.10;99.90;;;;;;923188;151;27418;-74
2023/03/09 02:56:28;;;;;;;0.60;0.60;;;12.10;99.90;;;;;;926294;151;27469;-73
2023/03/09 02:58:54;;;;;;;0.67;0.67;;;12.10;99.90;;;;;;925065;151;27364;-74
2023/03/09 03:01:21;;;;;;;0.90;0.90;;;12.00;99.90;;;;;;925868;151;27451;-73
2023/03/09 03:03:47;;;;;;;0.67;0.63;;;12.00;99.90;;;;;;925978;151;27386;-74
2023/03/09 03:06:14;;;;;;;0.80;0.77;;;12.00;99.90;;;;;;925434;151;27381;-73
2023/03/09 03:08:41;;;;;;;0.60;0.60;;;11.90;99.90;;;;;;925642;151;27415;-73
2023/03/09 03:11:07;;;;;;;1.93;0.70;;;11.90;99.90;;;;;;925996;151;27372;-73
2023/03/09 03:13:34;;;;;;;0.97;0.60;;;11.90;99.90;;;;;;928548;151;27409;-73
2023/03/09 03:16:00;;;;;;;1.83;0.80;;;11.80;99.90;;;;;;926460;151;27402;-73
2023/03/09 03:18:27;;;;;;;0.60;0.60;;;11.80;99.90;;;;;;926903;151;27307;-74
2023/03/09 03:20:53;;;;;;;0.37;0.37;;;11.80;99.90;;;;;;926994;151;27345;-74
2023/03/09 03:23:20;;;;;;;1.00;0.47;;;11.70;99.90;;;;;;925274;150;27386;-73
2023/03/09 03:25:47;;;;;;;1.23;1.07;;;11.70;99.90;;;;;;924407;151;27384;-74
2023/03/09 03:28:13;;;;;;;0.60;0.50;;;11.70;99.90;;;;;;926253;151;27402;-73
2023/03/09 03:30:40;;;;;;;0.43;0.43;;;11.60;99.90;;;;;;927338;151;27351;-73
2023/03/09 03:33:06;;;;;;;1.43;0.70;;;11.60;99.90;;;;;;925602;151;27378;-73
2023/03/09 03:35:33;;;;;;;0.63;0.63;;;11.60;99.90;;;;;;926104;151;27821;-73
2023/03/09 03:38:00;;;;;;;1.30;0.90;;;11.60;99.90;;;;;;925751;151;27377;-73
2023/03/09 03:40:26;;;;;;;1.87;0.80;;;11.60;99.90;;;;;;926005;151;27304;-74
2023/03/09 03:42:53;;;;;;;0.50;0.50;;;11.60;99.90;;;;;;926355;151;27323;-73
2023/03/09 03:45:20;;;;;;;1.00;1.00;;;11.60;99.90;;;;;;925690;151;27513;-74
2023/03/09 03:47:46;;;;;;;1.43;0.80;;;11.60;99.90;;;;;;927947;151;27382;-73
2023/03/09 03:50:13;;;;;;;0.80;0.67;;;11.60;99.90;;;;;;925116;151;27399;-74
2023/03/09 03:52:39;;;;;;;0.53;0.53;;;11.60;99.90;;;;;;926007;151;27434;-75
2023/03/09 03:55:06;;;;;;;0.67;0.60;;;11.60;99.90;;;;;;925853;151;27395;-75
2023/03/09 03:57:32;;;;;;;0.50;0.50;;;11.60;99.90;;;;;;927450;151;27463;-74
2023/03/09 03:59:59;;;;;;;0.40;0.40;;;11.60;99.90;;;;;;926158;151;27371;-74
2023/03/09 04:02:25;;;;;;;1.03;0.70;;;11.60;99.90;;;;;;925368;151;27335;-75
2023/03/09 04:04:52;;;;;;;0.50;0.50;;;11.60;99.90;;;;;;927741;151;27362;-75
2023/03/09 04:07:19;;;;;;;1.70;0.60;;;11.60;99.90;;;;;;926214;151;27378;-75
2023/03/09 04:09:45;;;;;;;1.30;1.00;;;11.60;99.90;;;;;;925102;151;27761;-75
2023/03/09 04:12:12;;;;;;;1.20;0.77;;;11.60;99.90;;;;;;927217;151;27311;-74
2023/03/09 04:14:38;;;;;;;0.80;0.80;;;11.60;99.90;;;;;;928817;151;27354;-74
2023/03/09 04:17:05;;;;;;;1.20;0.70;;;11.60;99.90;;;;;;926850;151;27323;-75
2023/03/09 04:19:32;;;;;;;1.10;1.00;;;11.70;99.90;;;;;;926767;151;27393;-75
2023/03/09 04:21:58;;;;;;;1.20;1.10;;;11.70;99.90;;;;;;926267;151;27351;-74
2023/03/09 04:24:25;;;;;;;1.17;0.70;;;11.70;99.90;;;;;;927832;151;27379;-74
2023/03/09 04:26:51;;;;;;;0.63;0.63;;;11.70;99.90;;;;;;924807;151;27372;-75
2023/03/09 04:29:18;;;;;;;0.80;0.80;;;11.80;99.90;;;;;;925245;151;27402;-75
2023/03/09 04:31:44;;;;;;;0.60;0.60;;;11.80;99.90;;;;;;924695;151;27493;-75
2023/03/09 04:34:11;;;;;;;0.60;0.60;;;11.80;99.90;;;;;;926484;151;27395;-75
2023/03/09 04:36:38;;;;;;;2.23;1.07;;;11.80;99.90;;;;;;926385;151;27344;-75
2023/03/09 04:39:04;;;;;;;0.80;0.80;;;11.80;99.90;;;;;;924899;151;27436;-75
2023/03/09 04:41:31;;;;;;;0.93;0.87;;;11.90;99.90;;;;;;927225;151;27395;-75
2023/03/09 04:43:57;;;;;;;0.77;0.77;;;11.90;99.90;;;;;;925202;151;27353;-75
2023/03/09 04:46:24;;;;;;;4.40;1.50;;;11.90;99.90;;;;;;927507;151;27449;-75
2023/03/09 04:48:51;;;;;;;1.93;1.13;;;11.90;99.90;;;;;;926022;151;27442;-75
2023/03/09 04:51:17;;;;;;;1.57;1.17;;;11.90;99.90;;;;;;928243;151;27393;-75
2023/03/09 04:53:44;;;;;;;1.60;1.20;;;11.90;99.90;;;;;;924888;151;27467;-75
2023/03/09 04:56:10;;;;;;;1.73;1.30;;;11.90;99.90;;;;;;925533;151;27388;-75
2023/03/09 04:58:37;;;;;;;1.13;0.93;;;11.90;99.90;;;;;;923535;151;27352;-75
2023/03/09 05:01:04;;;;;;;2.10;1.17;;;11.90;99.90;;;;;;927834;151;27347;-75
2023/03/09 05:03:30;;;;;;;1.47;1.03;;;11.90;99.90;;;;;;926624;151;27403;-75
2023/03/09 05:05:57;;;;;;;1.30;0.87;;;11.90;99.90;;;;;;926286;151;27387;-75
2023/03/09 05:08:23;;;;;;;1.40;1.30;;;11.90;99.90;;;;;;924432;151;27804;-75
2023/03/09 05:10:50;;;;;;;2.03;1.30;;;11.90;99.90;;;;;;926324;151;27391;-75
2023/03/09 05:13:16;;;;;;;1.90;1.13;;;11.90;99.90;;;;;;924757;151;27340;-75
2023/03/09 05:15:43;;;;;;;1.27;1.17;;;11.90;99.90;;;;;;924697;151;27476;-75
2023/03/09 05:18:11;;;;;;;2.20;1.30;;;11.90;99.90;;;;;;924657;151;27434;-75
2023/03/09 05:20:37;;;;;;;1.30;0.87;;;11.90;99.90;;;;;;925129;151;27405;-75
2023/03/09 05:23:03;;;;;;;3.97;1.20;;;11.90;99.90;;;;;;925458;150;27458;-75
2023/03/09 05:25:29;;;;;;;2.43;1.23;;;11.90;99.90;;;;;;926938;151;27394;-75
2023/03/09 05:27:56;;;;;;;1.33;1.00;;;11.90;99.90;;;;;;927498;151;27390;-75
2023/03/09 05:30:23;;;;;;;1.67;1.30;;;11.90;99.90;;;;;;926955;151;27459;-74
2023/03/09 05:32:52;;;;;;;1.10;1.00;;;11.90;99.90;;;;;;925858;151;27381;-75
2023/03/09 05:35:16;;;;;;;2.60;1.30;;;11.90;99.90;;;;;;925428;151;27462;-75
2023/03/09 05:37:43;;;;;;;1.53;1.40;;;11.90;99.90;;;;;;926080;151;27377;-75
2023/03/09 05:40:09;;;;;;;1.87;0.87;;;11.90;99.90;;;;;;926777;151;27375;-75
2023/03/09 05:42:36;;;;;;;1.30;1.20;;;11.90;99.90;;;;;;925354;151;27383;-75
2023/03/09 05:45:04;;;;;;;1.50;1.33;;;11.90;99.90;;;;;;927160;151;27408;-75
2023/03/09 05:47:29;;;;;;;2.00;1.10;;;11.90;99.90;;;;;;925853;151;27522;-75
2023/03/09 05:49:55;;;;;;;1.23;1.13;;;11.90;99.90;;;;;;926193;151;27589;-75
2023/03/09 05:52:22;;;;;;;1.70;1.13;;;11.90;99.90;;;;;;926940;151;27351;-75
2023/03/09 05:54:48;;;;;;;1.83;1.40;;;11.90;99.90;;;;;;925429;151;27364;-75
2023/03/09 05:57:15;;;;;;;2.80;1.33;;;11.90;99.90;;;;;;925363;151;27406;-75
2023/03/09 05:59:42;;;;;;;3.13;1.90;;;12.00;99.90;;;;;;925550;151;27415;-75
2023/03/09 06:02:08;;;;;;;2.23;1.60;;;12.00;99.90;;;;;;927255;151;27375;-75
2023/03/09 06:04:35;;;;;;;3.43;2.37;;;12.00;99.90;;;;;;928195;151;27748;-75
2023/03/09 06:07:01;;;;;;;2.90;2.37;;;12.00;99.90;;;;;;926845;151;27487;-75
2023/03/09 06:09:28;;;;;;;3.20;2.10;;;12.00;99.90;;;;;;926904;151;27426;-75
2023/03/09 06:11:55;;;;;;;3.87;1.80;;;12.00;99.90;;;;;;928597;151;27392;-75
2023/03/09 06:14:21;;;;;;;1.63;1.40;;;12.00;99.90;;;;;;925939;151;27368;-75
2023/03/09 06:16:48;;;;;;;3.10;1.40;;;12.00;99.90;;;;;;925546;151;27477;-75
2023/03/09 06:19:14;;;;;;;1.40;1.30;;;12.00;99.90;;;;;;926855;151;27399;-75
2023/03/09 06:21:41;;;;;;;2.37;1.53;;;12.00;99.90;;;;;;925619;151;27453;-75
2023/03/09 06:24:08;;;;;;;1.17;1.10;;;12.00;99.90;;;;;;925133;151;27684;-75
2023/03/09 06:26:34;;;;;;;2.43;1.20;;;12.00;99.90;;;;;;926364;151;27390;-75
2023/03/09 06:29:01;;;;;;;1.60;1.50;;;12.10;99.90;;;;;;926034;151;27467;-75
2023/03/09 06:31:27;;;;;;;1.77;1.40;;;12.10;99.90;;;;;;924776;151;27399;-74
2023/03/09 06:33:54;;;;;;;2.90;1.50;;;12.10;99.90;;;;;;925947;151;27481;-75
2023/03/09 06:36:20;;;;;;;2.20;1.80;;;12.10;99.90;;;;;;925510;151;27399;-74
2023/03/09 06:38:47;;;;;;;1.50;1.23;;;12.10;99.90;;;;;;925175;151;27356;-75
2023/03/09 06:41:15;;;;;;;5.00;1.90;;;12.10;99.90;;;;;;926019;151;27380;-75
2023/03/09 06:43:40;;;;;;;4.30;2.30;;;12.10;99.90;;;;;;924841;153;27835;-75
2023/03/09 06:46:07;;;;;;;4.23;1.50;;;12.10;99.90;;;;;;924184;152;27379;-74
2023/03/09 06:48:33;;;;;;;2.60;1.50;;;12.10;99.90;;;;;;923541;151;27507;-74
2023/03/09 06:51:00;;;;;;;2.73;1.40;;;12.10;99.90;;;;;;939292;148;27358;-75
2023/03/09 06:53:27;;;;;;;5.70;2.07;;;12.10;99.90;;;;;;925709;151;27396;-75
2023/03/09 06:55:53;;;;;;;5.97;1.53;;;12.10;99.90;;;;;;924134;150;27376;-75
2023/03/09 06:58:20;;;;;;;3.10;1.37;;;12.00;99.90;;;;;;905407;154;27339;-74
2023/03/09 07:00:46;;;;;;;3.07;1.80;;;12.00;99.90;;;;;;903034;153;27512;-75
2023/03/09 07:03:16;;;;;;;4.60;1.80;;;12.10;99.90;;;;;;902101;155;27422;-75
2023/03/09 07:05:42;;;;;;;5.13;1.70;;;12.10;99.90;;;;;;907885;153;27515;-74
2023/03/09 07:08:09;;;;;;;4.60;2.00;;;12.10;99.90;;;;;;919284;152;27485;-73
2023/03/09 07:10:36;;;;;;;4.07;1.90;;;12.10;99.90;;;;;;919236;152;27451;-73
2023/03/09 07:13:03;;;;;;;5.33;2.23;;;12.10;99.90;;;;;;917768;150;27419;-73
2023/03/09 07:15:29;;;;;;;4.57;2.50;;;12.10;99.90;;;;;;904121;154;27404;-73
2023/03/09 07:17:55;;;;;;;4.70;2.20;;;12.10;99.90;;;;;;918781;152;27457;-73
2023/03/09 07:20:24;;;;;;;6.00;2.23;;;12.10;99.90;;;;;;919813;152;27377;-73
2023/03/09 07:22:49;;;;;;;6.70;2.50;;;12.10;99.90;;;;;;903751;153;27371;-73
2023/03/09 07:25:16;;;;;;;3.20;2.10;;;12.10;99.90;;;;;;920292;150;27487;-73
2023/03/09 07:27:42;;;;;;;6.90;2.50;;;12.10;99.90;;;;;;920711;150;27342;-73
2023/03/09 07:30:09;;;;;;;5.07;2.57;;;12.20;99.90;;;;;;919740;152;27284;-73
2023/03/09 07:32:35;;;;;;;3.93;2.20;;;12.20;99.90;;;;;;903392;153;27455;-73
2023/03/09 07:35:02;;;;;;;5.47;3.03;;;12.20;99.90;;;;;;902914;153;27497;-73
2023/03/09 07:37:28;;;;;;;4.23;2.60;;;12.20;99.90;;;;;;904314;153;27426;-73
2023/03/09 07:39:55;;;;;;;9.17;3.10;;;12.20;99.90;;;;;;901637;153;27339;-73
2023/03/09 07:42:21;;;;;;;4.50;2.30;;;12.30;99.90;;;;;;902922;154;27374;-73
2023/03/09 07:44:48;;;;;;;8.23;3.00;;;12.30;99.90;;;;;;904841;153;27450;-73
2023/03/09 07:47:15;;;;;;;7.90;2.67;;;12.30;99.90;;;;;;902586;154;27425;-73
2023/03/09 07:49:41;;;;;;;4.30;2.27;;;12.40;99.90;;;;;;913632;153;27500;-73
2023/03/09 07:52:08;;;;;;;2.90;1.97;;;12.40;99.90;;;;;;909450;153;27746;-73
2023/03/09 07:54:36;;;;;;;7.37;2.37;;;12.50;99.90;;;;;;925178;151;27470;-73
2023/03/09 07:57:01;;;;;;;4.33;2.27;;;12.50;99.90;;;;;;911038;153;27377;-73
2023/03/09 07:59:28;;;;;;;6.43;2.63;;;12.50;99.90;;;;;;909243;153;27438;-73
2023/03/09 08:01:54;;;;;;;6.63;2.33;;;12.60;99.90;;;;;;910219;153;27384;-73
2023/03/09 08:04:21;;;;;;;7.50;3.17;;;12.60;99.90;;;;;;924417;150;27342;-73
2023/03/09 08:06:48;;;;;;;4.87;2.73;;;12.60;99.90;;;;;;929288;150;27486;-73
2023/03/09 08:09:14;;;;;;;3.53;2.57;;;12.60;99.90;;;;;;910165;153;27451;-73
2023/03/09 08:11:42;;;;;;;7.67;2.40;;;12.60;99.90;;;;;;910783;153;27431;-73
2023/03/09 08:14:07;;;;;;;2.33;2.07;;;12.70;99.90;;;;;;908977;153;27818;-73
2023/03/09 08:16:34;;;;;;;4.30;2.27;;;12.70;99.90;;;;;;910330;153;27473;-73
2023/03/09 08:19:00;;;;;;;3.80;1.70;;;12.80;99.90;;;;;;925065;151;27352;-73
2023/03/09 08:21:27;;;;;;;3.50;2.13;;;12.80;99.90;;;;;;911956;152;27481;-73
2023/03/09 08:23:53;;;;;;;6.40;2.17;;;12.80;99.90;;;;;;925858;150;27367;-73
2023/03/09 08:26:20;;;;;;;5.87;2.40;;;12.90;99.90;;;;;;918804;153;27417;-73
2023/03/09 08:28:47;;;;;;;5.07;2.20;;;12.90;99.90;;;;;;925930;151;27452;-73
2023/03/09 08:31:14;;;;;;;7.23;4.00;;;12.90;99.90;;;;;;911153;153;27413;-73
2023/03/09 08:33:40;;;;;;;7.83;4.90;;;13.00;99.90;;;;;;925971;153;27477;-73
2023/03/09 08:36:09;;;;;;;8.13;4.83;;;13.10;99.90;;;;;;926832;150;27415;-73
2023/03/09 08:38:36;;;;;;;5.97;3.60;;;13.10;99.90;;;;;;925703;151;27428;-72
2023/03/09 08:41:03;;;;;;;8.87;5.13;;;13.20;99.90;;;;;;910114;153;27524;-74
2023/03/09 08:43:29;;;;;;;5.83;3.02;;;13.20;99.90;;;;;;910290;153;27534;-74
2023/03/09 08:45:56;;;;;;;4.27;2.60;;;13.30;99.90;;;;;;928846;150;27383;-74
2023/03/09 08:48:22;;;;;;;4.15;2.75;;;13.30;99.90;;;;;;909738;153;27451;-74
2023/03/09 08:50:49;;;;;;;2.47;1.80;;;13.40;99.90;;;;;;928205;150;27322;-74
2023/03/09 08:53:18;;;;;;;2.60;2.40;;;13.40;99.90;;;;;;925849;151;28292;-74
2023/03/09 08:55:42;;;;;;;1.75;1.65;;;13.50;99.90;;;;;;912008;153;27961;-74
2023/03/09 08:58:09;;;;;;;3.27;2.10;;;13.50;99.90;;;;;;910138;153;27420;-74
2023/03/09 09:00:35;;;;;;;5.50;2.30;;;13.60;99.90;;;;;;910206;153;27321;-74
2023/03/09 09:03:02;;;;;;;2.42;2.12;;;13.60;99.90;;;;;;906284;154;27412;-74
2023/03/09 09:05:28;;;;;;;1.93;1.63;;;13.70;99.90;;;;;;923533;151;27399;-74
2023/03/09 09:07:55;;;;;;;2.47;1.57;;;13.70;99.90;;;;;;908814;153;27378;-74
2023/03/09 09:10:22;;;;;;;1.73;1.63;;;13.70;99.90;;;;;;925835;150;27356;-74
2023/03/09 09:12:48;;;;;;;1.97;1.53;;;13.80;99.90;;;;;;925245;150;27364;-74
2023/03/09 09:15:15;;;;;;;1.60;1.50;;;13.80;99.90;;;;;;926677;150;27407;-74
2023/03/09 09:17:42;;;;;;;1.67;1.40;;;13.80;99.90;;;;;;908818;153;27400;-74
2023/03/09 09:20:08;;;;;;;3.10;1.70;;;13.90;99.90;;;;;;911838;153;27489;-74
2023/03/09 09:22:35;;;;;;;3.80;2.00;;;13.90;99.90;;;;;;918685;153;27487;-74
2023/03/09 09:25:01;;;;;;;3.10;1.57;;;13.90;99.90;;;;;;909606;153;27494;-75
2023/03/09 09:27:28;;;;;;;2.65;1.75;;;13.90;99.90;;;;;;925567;151;27427;-75
2023/03/09 09:29:56;;;;;;;3.27;1.75;;;13.90;99.90;;;;;;927749;150;27729;-75
2023/03/09 09:32:21;;;;;;;3.85;1.30;;;14.00;99.90;;;;;;910248;153;27465;-75
2023/03/09 09:34:48;;;;;;;1.70;1.32;;;14.00;99.90;;;;;;909991;153;27366;-75
2023/03/09 09:37:16;;;;;;;2.37;1.60;;;14.10;99.90;;;;;;909702;153;27439;-75
2023/03/09 09:39:41;;;;;;;2.95;1.70;;;14.10;99.90;;;;;;906065;153;27507;-74
2023/03/09 09:42:07;;;;;;;1.62;1.50;;;14.20;99.90;;;;;;908830;153;27441;-81
2023/03/09 09:44:43;;;;;;;2.10;1.60;;;14.30;99.90;;;;;;922843;150;27468;-81
2023/03/09 09:47:10;;;;;;;3.70;1.50;;;14.40;99.90;;;;;;913580;153;27503;-81
2023/03/09 09:49:36;;;;;;;5.05;2.00;;;14.40;99.90;;;;;;906709;153;27509;-81
2023/03/09 09:52:02;;;;;;;3.50;1.80;;;14.50;99.90;;;;;;909269;154;27465;-82
2023/03/09 09:54:44;;;;;;;2.70;1.72;;;14.60;99.90;;;;;;904347;154;27378;-81
2023/03/09 09:57:13;;;;;;;3.75;1.90;;;14.60;99.90;;;;;;902408;155;27524;-81
2023/03/09 09:59:40;;;;;;;2.77;1.70;;;14.70;99.90;;;;;;901730;155;27502;-82
2023/03/09 10:02:09;;;;;;;2.70;1.87;;;14.70;99.90;;;;;;912266;154;27426;-81
2023/03/09 10:04:45;;;;;;;2.55;1.45;;;14.70;99.90;;;;;;903602;155;27516;-81
2023/03/09 10:07:17;;;;;;;4.25;1.80;;;14.80;99.90;;;;;;919044;152;27416;-81
2023/03/09 10:09:43;;;;;;;1.85;1.50;;;14.80;99.90;;;;;;905331;153;27460;-81
2023/03/09 10:12:10;;;;;;;2.97;1.63;;;14.80;99.90;;;;;;901182;155;27386;-80
2023/03/09 10:14:40;;;;;;;3.17;1.90;;;14.70;99.90;;;;;;903981;155;27505;-81
2023/03/09 10:17:15;;;;;;;5.25;2.20;;;14.70;99.90;;;;;;917486;152;27387;-81
2023/03/09 10:19:42;;;;;;;3.15;2.17;;;14.70;99.90;;;;;;899020;154;27714;-81
2023/03/09 10:22:14;;;;;;;3.23;1.90;;;14.70;99.90;;;;;;919395;152;27466;-81
2023/03/09 10:24:46;;;;;;;3.98;1.82;;;14.70;99.90;;;;;;923699;151;27440;-81
2023/03/09 10:27:37;;;;;;;3.30;1.85;;;14.60;99.90;;;;;;923407;151;27299;-83
2023/03/09 10:30:12;;;;;;;6.03;1.90;;;14.60;99.90;;;;;;942605;148;27305;-82
2023/03/09 10:32:48;;;;;;;2.30;1.63;;;14.60;99.90;;;;;;905193;154;27373;-82
2023/03/09 10:35:38;;;;;;;4.58;1.87;;;14.60;99.90;;;;;;902459;155;27414;-82
2023/03/09 10:38:05;;;;;;;5.00;1.98;;;14.60;99.90;;;;;;920575;152;27454;-82
2023/03/09 10:40:32;;;;;;;9.18;2.67;;;14.50;99.90;;;;;;906301;154;27367;-82
2023/03/09 10:42:58;;;;;;;4.53;2.27;;;14.50;99.90;;;;;;917357;152;27346;-82
2023/03/09 10:45:28;;;;;;;3.58;2.27;;;14.50;99.90;;;;;;918691;152;27424;-82
2023/03/09 10:48:09;;;;;;;4.37;2.03;;;14.50;99.90;;;;;;903065;154;27364;-81
2023/03/09 10:50:40;;;;;;;4.70;2.30;;;14.60;99.90;;;;;;906436;154;27448;-82
2023/03/09 10:53:23;;;;;;;7.17;2.60;;;14.60;99.90;;;;;;902093;155;27455;-81
2023/03/09 10:55:50;;;;;;;3.30;1.90;;;14.70;99.90;;;;;;916866;151;27412;-82
2023/03/09 10:58:21;;;;;;;5.00;2.90;;;14.70;99.90;;;;;;924224;151;27355;-80
2023/03/09 11:00:54;;;;;;;6.80;2.70;;;14.80;99.90;;;;;;923535;151;27335;-79
2023/03/09 11:03:21;;;;;;;5.10;2.60;;;14.80;99.90;;;;;;921316;151;27464;-79
2023/03/09 11:05:48;;;;;;;4.90;2.80;;;14.90;99.90;;;;;;921424;151;27903;-79
2023/03/09 11:08:23;;;;;;;5.85;2.47;;;15.00;99.80;;;;;;922892;151;27327;-79
2023/03/09 11:10:50;;;;;;;5.25;1.85;;;15.00;99.60;;;;;;920805;151;27418;-79
2023/03/09 11:13:17;;;;;;;4.92;2.92;;;15.10;99.90;;;;;;923848;151;27363;-80
2023/03/09 11:15:43;;;;;;;3.08;2.00;;;15.20;99.50;;;;;;921451;151;27718;-80
2023/03/09 11:18:28;;;;;;;6.10;3.08;;;15.30;99.40;;;;;;922500;151;27429;-79
2023/03/09 11:20:55;;;;;;;5.70;2.65;;;15.40;99.20;;;;;;917614;152;27409;-79
2023/03/09 11:23:27;;;;;;;3.42;2.02;;;15.50;98.50;;;;;;901435;155;27387;-80
2023/03/09 11:26:12;;;;;;;3.27;1.95;;;15.50;97.90;;;;;;910828;154;27412;-79
2023/03/09 11:28:47;;;;;;;7.15;2.42;;;15.60;97.30;;;;;;917815;152;27403;-81
2023/03/09 11:31:14;;;;;;;3.22;1.70;;;15.70;96.90;;;;;;923021;151;27430;-79
2023/03/09 11:33:40;;;;;;;5.00;2.40;;;15.60;96.40;;;;;;918513;151;27338;-80
2023/03/09 11:36:07;;;;;;;4.90;2.10;;;15.60;96.00;;;;;;902895;155;27375;-80
2023/03/09 11:38:33;;;;;;;4.53;2.25;;;15.60;96.20;;;;;;902420;155;27533;-80
2023/03/09 11:41:06;;;;;;;4.45;2.25;;;15.60;96.20;;;;;;906394;154;27369;-79
2023/03/09 11:43:33;;;;;;;4.87;2.70;;;15.60;96.10;;;;;;900718;155;27492;-80
2023/03/09 11:45:59;;;;;;;3.67;2.02;;;15.50;95.90;;;;;;920051;152;27799;-80
2023/03/09 11:48:32;;;;;;;3.67;1.65;;;15.60;96.00;;;;;;902454;154;27524;-81
2023/03/09 11:51:01;;;;;;;4.12;2.08;;;15.50;96.10;;;;;;917860;152;27385;-79
2023/03/09 11:53:34;;;;;;;2.67;1.70;;;15.50;96.20;;;;;;903098;154;27520;-80
2023/03/09 11:56:16;;;;;;;4.00;1.90;;;15.60;96.90;;;;;;918022;152;27404;-80
2023/03/09 11:58:42;;;;;;;5.67;2.00;;;15.60;97.30;;;;;;923401;151;27625;-80
2023/03/09 12:01:14;;;;;;;3.75;2.22;;;15.70;97.40;;;;;;911261;154;27339;-80
2023/03/09 12:03:47;;;;;;;1.77;1.57;;;15.70;97.70;;;;;;902002;155;27914;-80
2023/03/09 12:06:38;;;;;;;1.92;1.70;;;15.80;98.00;;;;;;918603;152;27347;-80
2023/03/09 12:09:05;;;;;;;2.67;1.70;;;16.00;97.80;;;;;;917876;152;27443;-80
2023/03/09 12:11:50;;;;;;;3.27;1.72;;;16.10;98.00;;;;;;916670;152;27396;-80
2023/03/09 12:14:28;;;;;;;2.87;1.90;;;16.20;97.70;;;;;;924303;151;27393;-80
2023/03/09 12:16:55;;;;;;;4.70;3.27;;;16.30;97.30;;;;;;938209;148;27431;-80
2023/03/09 12:19:21;;;;;;;2.90;2.00;;;16.50;96.90;;;;;;925833;151;27281;-80
2023/03/09 12:21:51;;;;;;;3.60;1.98;;;16.60;96.70;;;;;;921109;151;27363;-79
2023/03/09 12:24:36;;;;;;;3.83;1.80;;;16.70;96.20;;;;;;935981;148;27433;-80
2023/03/09 12:27:11;;;;;;;2.12;1.62;;;16.80;95.30;;;;;;906336;154;27431;-80
2023/03/09 12:29:50;;;;;;;2.55;1.40;;;16.80;95.00;;;;;;904441;154;27414;-79
2023/03/09 12:32:26;;;;;;;3.25;1.87;;;16.90;94.00;;;;;;936410;148;27371;-80
2023/03/09 12:34:52;;;;;;;3.27;1.87;;;16.90;93.30;;;;;;905883;154;27512;-79
2023/03/09 12:37:28;;;;;;;3.10;2.08;;;16.90;91.90;;;;;;923294;151;27498;-80
2023/03/09 12:40:00;;;;;;;1.50;1.40;;;16.90;92.20;;;;;;940319;148;27344;-80
2023/03/09 12:42:36;;;;;;;2.72;1.37;;;16.80;91.50;;;;;;938564;148;27474;-79
2023/03/09 12:45:14;;;;;;;2.22;1.40;;;16.80;91.20;;;;;;903116;154;27449;-80
2023/03/09 12:47:52;;;;;;;2.77;1.87;;;16.70;91.00;;;;;;922796;151;27433;-80
2023/03/09 12:50:45;;;;;;;2.62;1.55;;;16.70;91.40;;;;;;918252;152;27429;-79
2023/03/09 12:53:19;;;;;;;2.77;1.80;;;16.60;91.50;;;;;;904063;155;27478;-80